Alto, NM

5:27 PM MDT on May 29, 2015 (GMT -0600)
Holloman AFB | | Change Station
CLOSE
Current Station
Airport
Location: Holloman AFB,
Elevation: 4094 ft
Nearby Weather Stations

Elev 4094 ft 32.85 °N, 106.11 °W | Updated 29 minutes ago

Partly Cloudy
Partly Cloudy
91 °F
Feels Like 91 °F
N
8
Wind Variable Wind from WNW
Gusts 17 mph

Today
High -- | Low -- °F
--% Chance of Precip.
Yesterday
High -- | Low -- °F
Precip. -- in
5:55 AM 8:05 PM
Waxing Gibbous, 86% visible
Pressure 29.76 in
Visibility 10.0 miles
Clouds Clear
Dew Point 16 °F
Humidity 6%
Rainfall 0.00 in
Snow Depth Not available.
UV 5 out of 12
Pollen 5.40 out of 12
Air Quality Not available.
Flu Activity Local Activity
METAR KHMN 292258Z AUTO 30007G15KT 10SM CLR 33/M09 A2995 RMK AO2 SLP077 T03271087

More Conditions Fewer Conditions

Pressure 29.76 in
Visibility 10.0 miles
Clouds Clear
Dew Point 16 °F
Humidity 6%
Rainfall 0.00 in
Snow Depth Not available.
UV 5 out of 12
Pollen 5.40 out of 12
Air Quality Not available.
Flu Activity Local Activity
METAR KHMN 292258Z AUTO 30007G15KT 10SM CLR 33/M09 A2995 RMK AO2 SLP077 T03271087

More Conditions Fewer Conditions

Nowcast | as of 3:54 PM MDT on May 29, 2015

Isolated thunderstorms...some possibly severe...will continue to develop and move southeast at 20 to 30 mph across the eastern plains. Expect moderate rain with brief heavy downpours to produce amounts ranging from one quarter to one half inch. In addition...frequent lightning...pea to quarter size hail and wind gusts to near 60 mph are likely with this activity. Through 6 PM MDT...storms will focus between Clayton...Newkirk...Mesa and the Texas border.

×

10-Day Weather Forecast

Almanac

Astronomy

May. 29, 2015 Rise Set
Actual Time
Civil Twilight
Nautical Twilight
Astronomical Twilight
Moon
Length of Visible Light
Length of Day
Tomorrow will be .
, % of the Moon is Illuminated

Today's Extremes

State Highs State Lows

Community

WunderPhotos

Upload Photos

1,825,401 photos uploaded!

WunderBlogs® & News

Nearby

Air Quality

  Air Quality AQ Index Pollutant
Not available.

Snow Depth

Station Depth Elevation

Earthquake Activity

City Distance Mag. Time & Date
Minimum magnitude displayed is 2.5.

Coastal Water Temperatures

Place Temperature

Stations

Nearby Weather Stations

Station Location Temp. Windchill Dew Point Humidity Wind Precip. Elev Updated Type